createdAt,value
2019-04-27T00:02:18.094Z,3.27
2019-04-27T00:04:55.865Z,3.10
2019-04-27T00:07:29.108Z,2.47
2019-04-27T00:10:00.818Z,2.80
2019-04-27T00:12:29.810Z,2.50
2019-04-27T00:14:58.430Z,2.97
2019-04-27T00:17:48.645Z,2.67
2019-04-27T00:20:25.315Z,2.83
2019-04-27T00:22:58.271Z,2.90
2019-04-27T00:25:28.374Z,2.63
2019-04-27T00:27:58.441Z,2.97
2019-04-27T00:30:26.998Z,2.50
2019-04-27T00:32:55.646Z,2.50
2019-04-27T00:35:25.772Z,2.62
2019-04-27T00:38:04.426Z,3.00
2019-04-27T00:40:34.674Z,2.80
2019-04-27T00:43:03.136Z,3.15
2019-04-27T00:45:33.985Z,2.23
2019-04-27T00:48:03.545Z,2.27
2019-04-27T00:50:33.883Z,2.20
2019-04-27T00:53:03.485Z,2.37
2019-04-27T00:55:35.008Z,2.23
2019-04-27T00:58:05.188Z,2.57
2019-04-27T01:00:51.613Z,2.33
2019-04-27T01:03:26.226Z,2.17
2019-04-27T01:05:57.394Z,2.40
2019-04-27T01:08:25.934Z,2.40
2019-04-27T01:10:56.364Z,2.60
2019-04-27T01:13:24.739Z,2.47
2019-04-27T01:15:54.682Z,2.20
2019-04-27T01:18:23.363Z,2.57
2019-04-27T01:20:51.828Z,2.77
2019-04-27T01:23:20.362Z,2.60
2019-04-27T01:26:02.325Z,2.40
2019-04-27T01:28:35.421Z,2.30
2019-04-27T01:31:11.698Z,2.50
2019-04-27T01:33:41.213Z,2.70
2019-04-27T01:36:10.745Z,2.90
2019-04-27T01:38:41.022Z,2.83
2019-04-27T01:41:11.713Z,3.30
2019-04-27T01:43:40.189Z,2.85
2019-04-27T01:46:09.152Z,2.90
2019-04-27T01:48:38.695Z,2.87
2019-04-27T01:51:09.110Z,3.00
2019-04-27T01:53:39.003Z,2.97
2019-04-27T01:56:09.209Z,2.90
2019-04-27T01:58:46.620Z,2.90
2019-04-27T02:01:18.955Z,3.10
2019-04-27T02:03:54.864Z,3.03
2019-04-27T02:06:24.014Z,3.50
2019-04-27T02:08:57.090Z,3.73
2019-04-27T02:11:25.620Z,3.90
2019-04-27T02:13:54.148Z,3.50
2019-04-27T02:16:22.690Z,3.30
2019-04-27T02:18:52.916Z,3.33
2019-04-27T02:21:21.374Z,3.70
2019-04-27T02:23:52.521Z,3.57
2019-04-27T02:26:21.585Z,2.90
2019-04-27T02:29:03.760Z,3.57
2019-04-27T02:31:45.755Z,3.03
2019-04-27T02:34:19.960Z,3.20
2019-04-27T02:36:50.654Z,3.33
2019-04-27T02:39:19.557Z,3.73
2019-04-27T02:41:51.918Z,3.50
2019-04-27T02:44:36.261Z,3.70
2019-04-27T02:47:04.967Z,4.17
2019-04-27T02:49:33.448Z,3.50
2019-04-27T02:52:03.710Z,3.73
2019-04-27T02:54:32.251Z,3.90
2019-04-27T02:57:00.777Z,4.13
2019-04-27T02:59:30.476Z,3.80
2019-04-27T03:02:05.366Z,3.47
2019-04-27T03:04:35.201Z,4.20
2019-04-27T03:07:03.837Z,3.83
2019-04-27T03:09:32.358Z,3.90
2019-04-27T03:12:02.233Z,4.00
2019-04-27T03:14:50.598Z,3.70
2019-04-27T03:17:22.716Z,4.10
2019-04-27T03:19:53.430Z,3.87
2019-04-27T03:22:29.247Z,3.67
2019-04-27T03:25:14.730Z,4.08
2019-04-27T03:27:50.272Z,4.00
2019-04-27T03:30:23.064Z,4.15
2019-04-27T03:32:54.865Z,4.47
2019-04-27T03:35:22.853Z,4.70
2019-04-27T03:37:51.196Z,4.20
2019-04-27T03:40:20.503Z,3.80
2019-04-27T03:42:50.872Z,4.57
2019-04-27T03:45:20.142Z,5.33
2019-04-27T03:47:51.224Z,4.43
2019-04-27T03:50:23.870Z,4.40
2019-04-27T03:53:10.340Z,3.93
2019-04-27T03:55:50.210Z,4.50
2019-04-27T03:58:21.618Z,5.50
2019-04-27T04:00:52.141Z,4.20
2019-04-27T04:03:24.129Z,4.28
2019-04-27T04:05:52.651Z,4.23
2019-04-27T04:08:21.846Z,4.43
2019-04-27T04:10:59.684Z,4.37
2019-04-27T04:13:35.787Z,3.90
2019-04-27T04:16:10.874Z,3.95
2019-04-27T04:19:00.860Z,3.37
2019-04-27T04:21:29.985Z,4.05
2019-04-27T04:24:00.885Z,4.55
2019-04-27T04:26:29.474Z,3.83
2019-04-27T04:28:59.903Z,4.05
2019-04-27T04:31:32.124Z,4.33
2019-04-27T04:33:59.705Z,4.60
2019-04-27T04:36:30.306Z,5.17
2019-04-27T04:39:00.568Z,4.70
2019-04-27T04:41:33.417Z,4.00
2019-04-27T04:44:06.548Z,4.10
2019-04-27T04:46:36.721Z,3.80
2019-04-27T04:49:05.242Z,4.37
2019-04-27T04:51:33.880Z,3.87
2019-04-27T04:54:03.411Z,4.33
2019-04-27T04:56:31.873Z,3.83
2019-04-27T04:59:03.440Z,4.23
2019-04-27T05:01:32.332Z,3.98
2019-04-27T05:04:00.904Z,3.90
2019-04-27T05:06:29.398Z,4.00
2019-04-27T05:08:59.476Z,3.93
2019-04-27T05:11:29.800Z,4.00
2019-04-27T05:14:01.274Z,4.17
2019-04-27T05:16:32.780Z,4.37
2019-04-27T05:19:01.156Z,4.20
2019-04-27T05:21:33.874Z,5.10
2019-04-27T05:24:04.513Z,4.33
2019-04-27T05:26:32.979Z,5.17
2019-04-27T05:29:02.478Z,4.10
2019-04-27T05:31:31.018Z,3.90
2019-04-27T05:33:59.669Z,4.57
2019-04-27T05:36:29.599Z,3.87
2019-04-27T05:38:59.744Z,4.53
2019-04-27T05:41:31.157Z,4.62
2019-04-27T05:44:03.145Z,5.28
2019-04-27T05:46:40.852Z,5.23
2019-04-27T05:49:18.838Z,6.08
2019-04-27T05:51:50.502Z,5.50
2019-04-27T05:54:19.930Z,5.23
2019-04-27T05:56:49.623Z,5.67
2019-04-27T05:59:19.874Z,5.10
2019-04-27T06:01:49.588Z,5.70
2019-04-27T06:04:19.325Z,5.83
2019-04-27T06:06:49.732Z,6.00
2019-04-27T06:09:19.362Z,5.33
2019-04-27T06:11:50.274Z,5.63
2019-04-27T06:14:19.233Z,5.63
2019-04-27T06:16:51.007Z,6.90
2019-04-27T06:19:20.568Z,6.20
2019-04-27T06:21:50.588Z,6.60
2019-04-27T06:24:20.600Z,6.60
2019-04-27T06:26:49.847Z,6.97
2019-04-27T06:29:19.682Z,6.90
2019-04-27T06:31:49.639Z,7.80
2019-04-27T06:34:19.396Z,6.53
2019-04-27T06:36:50.605Z,8.60
2019-04-27T06:39:20.533Z,8.73
2019-04-27T06:41:50.780Z,9.70
2019-04-27T06:44:19.699Z,9.68
2019-04-27T06:46:51.157Z,9.53
2019-04-27T06:49:19.763Z,9.87
2019-04-27T06:51:50.987Z,10.83
2019-04-27T06:54:21.553Z,11.40
2019-04-27T06:56:49.737Z,11.00
2019-04-27T06:59:23.145Z,13.10
2019-04-27T07:01:51.679Z,12.80
2019-04-27T07:04:20.417Z,13.20
2019-04-27T07:06:53.993Z,14.53
2019-04-27T07:09:20.221Z,12.80
2019-04-27T07:11:49.354Z,13.47
2019-04-27T07:14:23.793Z,13.97
2019-04-27T07:16:52.275Z,14.20
2019-04-27T07:19:20.785Z,14.07
2019-04-27T07:21:54.509Z,12.40
2019-04-27T07:24:26.763Z,12.83
2019-04-27T07:26:55.257Z,13.98
2019-04-27T07:29:24.751Z,13.10
2019-04-27T07:31:53.221Z,13.37
2019-04-27T07:34:25.521Z,13.40
2019-04-27T07:36:54.025Z,15.27
2019-04-27T07:39:23.686Z,15.90
2019-04-27T07:41:52.784Z,16.10
2019-04-27T07:44:24.353Z,14.87
2019-04-27T07:47:15.482Z,14.37
2019-04-27T07:49:45.816Z,16.33
2019-04-27T07:52:14.413Z,17.47
2019-04-27T07:54:44.521Z,15.67
2019-04-27T07:57:13.205Z,17.23
2019-04-27T07:59:44.103Z,15.67
2019-04-27T08:02:12.739Z,13.93
2019-04-27T08:04:44.067Z,9.23
2019-04-27T08:07:12.623Z,7.70
2019-04-27T08:09:42.112Z,8.45
2019-04-27T08:12:10.985Z,9.23
2019-04-27T08:14:39.743Z,8.00
2019-04-27T08:17:09.750Z,8.23
2019-04-27T08:19:42.230Z,8.10
2019-04-27T08:22:12.895Z,8.80
2019-04-27T08:24:44.224Z,9.18
2019-04-27T08:27:17.312Z,7.93
2019-04-27T08:29:53.159Z,8.43
2019-04-27T08:32:39.422Z,6.93
2019-04-27T08:35:11.060Z,6.33
2019-04-27T08:37:51.114Z,6.37
2019-04-27T08:40:21.558Z,4.70
2019-04-27T08:42:52.314Z,4.72
2019-04-27T08:45:20.778Z,4.78
2019-04-27T08:47:49.971Z,6.20
2019-04-27T08:50:19.206Z,5.93
2019-04-27T08:52:49.902Z,5.63
2019-04-27T08:55:20.383Z,5.27
2019-04-27T08:57:50.576Z,5.28
2019-04-27T09:00:19.599Z,6.15
2019-04-27T09:02:50.371Z,4.77
2019-04-27T09:05:28.908Z,5.53
2019-04-27T09:08:08.721Z,5.13
2019-04-27T09:10:44.774Z,4.67
2019-04-27T09:13:19.353Z,3.90
2019-04-27T09:15:49.555Z,4.17
2019-04-27T09:18:19.701Z,4.03
2019-04-27T09:20:53.745Z,3.77
2019-04-27T09:23:23.277Z,3.57
2019-04-27T09:25:56.426Z,3.40
2019-04-27T09:28:27.268Z,3.53
2019-04-27T09:30:55.815Z,3.80
2019-04-27T09:33:24.516Z,4.65
2019-04-27T09:35:56.722Z,4.20
2019-04-27T09:38:26.882Z,4.00
2019-04-27T09:40:58.087Z,4.93
2019-04-27T09:43:26.881Z,4.40
2019-04-27T09:45:55.776Z,4.33
2019-04-27T09:48:27.092Z,4.33
2019-04-27T09:50:56.069Z,4.97
2019-04-27T09:53:27.334Z,5.00
2019-04-27T09:55:57.538Z,4.73
2019-04-27T09:58:27.126Z,4.40
2019-04-27T10:00:56.815Z,3.80
2019-04-27T10:03:27.110Z,4.67
2019-04-27T10:05:57.086Z,4.63
2019-04-27T10:08:26.191Z,5.00
2019-04-27T10:10:56.854Z,5.90
2019-04-27T10:13:27.604Z,6.13
2019-04-27T10:15:56.501Z,6.10
2019-04-27T10:18:26.569Z,6.80
2019-04-27T10:20:59.910Z,6.33
2019-04-27T10:23:28.287Z,4.57
2019-04-27T10:25:56.807Z,4.93
2019-04-27T10:28:25.357Z,3.75
2019-04-27T10:30:55.636Z,2.70
2019-04-27T10:33:25.758Z,2.20
2019-04-27T10:35:56.293Z,2.35
2019-04-27T10:38:25.869Z,2.50
2019-04-27T10:40:54.541Z,2.27
2019-04-27T10:43:25.783Z,2.03
2019-04-27T10:45:57.535Z,1.97
2019-04-27T10:48:27.703Z,2.80
2019-04-27T10:50:56.210Z,2.33
2019-04-27T10:53:26.735Z,1.87
2019-04-27T10:55:56.617Z,2.53
2019-04-27T10:58:27.428Z,2.13
2019-04-27T11:00:58.486Z,2.67
2019-04-27T11:03:46.212Z,2.27
2019-04-27T11:06:33.505Z,2.27
2019-04-27T11:09:03.074Z,2.30
2019-04-27T11:11:36.218Z,2.27
2019-04-27T11:14:06.738Z,2.67
2019-04-27T11:16:35.668Z,2.37
2019-04-27T11:19:07.009Z,2.00
2019-04-27T11:21:37.935Z,2.77
2019-04-27T11:24:07.669Z,2.60
2019-04-27T11:26:37.489Z,2.73
2019-04-27T11:29:06.025Z,2.53
2019-04-27T11:31:36.395Z,3.10
2019-04-27T11:34:08.469Z,2.27
2019-04-27T11:36:45.588Z,3.17
2019-04-27T11:39:16.214Z,2.60
2019-04-27T11:41:46.325Z,2.65
2019-04-27T11:44:15.290Z,2.70
2019-04-27T11:46:45.509Z,2.33
2019-04-27T11:49:19.259Z,2.57
2019-04-27T11:51:50.364Z,3.10
2019-04-27T11:54:22.111Z,3.23
2019-04-27T11:56:50.594Z,3.27
2019-04-27T11:59:19.149Z,3.07
2019-04-27T12:01:47.631Z,2.90
2019-04-27T12:04:17.133Z,3.50
2019-04-27T12:06:46.228Z,2.87
2019-04-27T12:09:14.848Z,2.90
2019-04-27T12:11:43.383Z,4.17
2019-04-27T12:14:12.084Z,3.07
2019-04-27T12:16:40.559Z,3.30
2019-04-27T12:19:09.048Z,3.67
2019-04-27T12:21:37.623Z,3.17
2019-04-27T12:24:06.240Z,3.20
2019-04-27T12:26:36.429Z,3.20
2019-04-27T12:29:09.048Z,3.73
2019-04-27T12:31:39.153Z,3.40
2019-04-27T12:34:07.602Z,3.60
2019-04-27T12:36:36.107Z,2.60
2019-04-27T12:39:10.132Z,3.03
2019-04-27T12:41:38.782Z,2.50
2019-04-27T12:44:08.389Z,3.50
2019-04-27T12:46:37.158Z,2.70
2019-04-27T12:49:05.993Z,2.73
2019-04-27T12:51:37.423Z,3.07
2019-04-27T12:54:07.816Z,2.97
2019-04-27T12:56:49.741Z,1.70
2019-04-27T12:59:40.038Z,3.30
2019-04-27T13:02:08.793Z,3.40
2019-04-27T13:04:41.133Z,3.63
2019-04-27T13:07:09.818Z,3.93
2019-04-27T13:09:38.392Z,2.23
2019-04-27T13:12:07.085Z,1.50
2019-04-27T13:14:36.762Z,2.37
2019-04-27T13:17:06.267Z,2.10
2019-04-27T13:19:36.637Z,1.87
2019-04-27T13:22:07.518Z,2.30
2019-04-27T13:24:36.228Z,2.17
2019-04-27T13:27:06.441Z,2.40
2019-04-27T13:29:35.695Z,2.17
2019-04-27T13:32:08.450Z,3.00
2019-04-27T13:34:38.313Z,2.33
2019-04-27T13:37:08.594Z,4.50
2019-04-27T13:39:37.106Z,3.98
2019-04-27T13:42:06.629Z,3.30
2019-04-27T13:44:36.021Z,3.87
2019-04-27T13:47:09.138Z,2.50
2019-04-27T13:49:56.570Z,4.13
2019-04-27T13:52:26.756Z,3.72
2019-04-27T13:54:56.028Z,3.70
2019-04-27T13:57:27.694Z,3.70
2019-04-27T13:59:56.257Z,3.43
2019-04-27T14:02:28.892Z,5.07
2019-04-27T14:04:57.962Z,3.75
2019-04-27T14:07:27.781Z,4.60
2019-04-27T14:09:56.245Z,4.13
2019-04-27T14:12:30.063Z,5.60
2019-04-27T14:14:59.081Z,4.10
2019-04-27T14:17:30.731Z,4.10
2019-04-27T14:19:59.604Z,3.77
2019-04-27T14:22:31.441Z,3.92
2019-04-27T14:24:58.894Z,2.57
2019-04-27T14:27:28.997Z,3.60
2019-04-27T14:30:00.088Z,2.57
2019-04-27T14:32:28.739Z,3.27
2019-04-27T14:34:59.183Z,3.90
2019-04-27T14:37:28.620Z,3.70
2019-04-27T14:39:59.858Z,4.83
2019-04-27T14:42:29.356Z,4.10
2019-04-27T14:44:58.821Z,4.47
2019-04-27T14:47:27.397Z,4.30
2019-04-27T14:49:55.863Z,4.30
2019-04-27T14:52:24.353Z,4.03
2019-04-27T14:54:52.842Z,4.30
2019-04-27T14:57:21.385Z,4.53
2019-04-27T14:59:49.944Z,4.43
2019-04-27T15:02:18.585Z,4.20
2019-04-27T15:04:49.650Z,3.73
2019-04-27T15:07:18.144Z,4.05
2019-04-27T15:09:53.530Z,4.80
2019-04-27T15:12:30.400Z,4.07
2019-04-27T15:14:57.188Z,5.17
2019-04-27T15:17:26.793Z,4.60
2019-04-27T15:19:59.666Z,4.77
2019-04-27T15:22:30.108Z,5.30
2019-04-27T15:25:09.064Z,5.62
2019-04-27T15:27:37.200Z,4.13
2019-04-27T15:30:08.620Z,3.70
2019-04-27T15:32:55.759Z,4.30
2019-04-27T15:35:44.033Z,4.20
2019-04-27T15:38:33.701Z,3.90
2019-04-27T15:41:09.643Z,3.77
2019-04-27T15:43:39.744Z,4.40
2019-04-27T15:46:09.750Z,4.60
2019-04-27T15:48:38.588Z,4.78
2019-04-27T15:51:14.819Z,4.90
2019-04-27T15:53:39.406Z,4.73
2019-04-27T15:56:08.903Z,4.40
2019-04-27T15:58:38.273Z,4.37
2019-04-27T16:01:11.898Z,5.75
2019-04-27T16:03:40.748Z,4.63
2019-04-27T16:06:11.924Z,5.10
2019-04-27T16:08:46.867Z,5.73
2019-04-27T16:11:19.555Z,6.00
2019-04-27T16:13:48.776Z,5.37
2019-04-27T16:16:19.641Z,5.65
2019-04-27T16:18:49.109Z,6.60
2019-04-27T16:21:17.799Z,6.50
2019-04-27T16:23:48.145Z,6.03
2019-04-27T16:26:18.303Z,5.50
2019-04-27T16:28:52.815Z,6.50
2019-04-27T16:31:18.611Z,5.17
2019-04-27T16:33:49.635Z,4.65
2019-04-27T16:36:19.762Z,4.70
2019-04-27T16:38:51.356Z,5.15
2019-04-27T16:41:19.856Z,4.30
2019-04-27T16:43:49.018Z,5.50
2019-04-27T16:46:21.592Z,4.83
2019-04-27T16:48:50.140Z,4.67
2019-04-27T16:51:20.164Z,5.13
2019-04-27T16:53:48.973Z,4.70
2019-04-27T16:56:20.504Z,4.73
2019-04-27T16:58:56.546Z,5.27
2019-04-27T17:01:28.448Z,5.00
2019-04-27T17:03:56.795Z,5.40
2019-04-27T17:06:29.351Z,4.27
2019-04-27T17:09:05.019Z,5.30
2019-04-27T17:11:29.830Z,5.13
2019-04-27T17:14:09.450Z,4.93
2019-04-27T17:16:53.412Z,4.43
2019-04-27T17:19:26.591Z,5.23
2019-04-27T17:21:55.303Z,4.73
2019-04-27T17:24:41.954Z,4.70
2019-04-27T17:27:05.383Z,4.35
2019-04-27T17:29:40.067Z,4.57
2019-04-27T17:32:11.995Z,4.97
2019-04-27T17:34:42.931Z,4.20
2019-04-27T17:37:11.395Z,4.33
2019-04-27T17:39:41.185Z,5.17
2019-04-27T17:42:11.111Z,4.93
2019-04-27T17:44:43.674Z,5.07
2019-04-27T17:47:12.119Z,4.67
2019-04-27T17:49:42.910Z,4.40
2019-04-27T17:52:13.055Z,3.93
2019-04-27T17:54:47.441Z,3.87
2019-04-27T17:57:15.646Z,3.97
2019-04-27T17:59:44.235Z,3.73
2019-04-27T18:02:14.791Z,4.27
2019-04-27T18:04:43.347Z,3.58
2019-04-27T18:07:15.646Z,4.07
2019-04-27T18:09:44.272Z,4.70
2019-04-27T18:12:15.636Z,4.37
2019-04-27T18:14:45.717Z,4.07
2019-04-27T18:17:15.173Z,3.92
2019-04-27T18:19:45.571Z,3.80
2019-04-27T18:22:15.250Z,4.28
2019-04-27T18:24:49.544Z,3.97
2019-04-27T18:27:37.807Z,3.45
2019-04-27T18:30:10.477Z,3.30
2019-04-27T18:32:40.411Z,4.20
2019-04-27T18:35:09.225Z,4.30
2019-04-27T18:37:38.914Z,3.57
2019-04-27T18:40:09.323Z,4.40
2019-04-27T18:42:38.589Z,4.10
2019-04-27T18:45:08.825Z,5.33
2019-04-27T18:47:40.500Z,4.53
2019-04-27T18:50:17.917Z,4.50
2019-04-27T18:52:58.133Z,4.13
2019-04-27T18:55:28.804Z,4.70
2019-04-27T18:57:58.716Z,4.27
2019-04-27T19:00:29.505Z,4.10
2019-04-27T19:02:58.536Z,4.30
2019-04-27T19:05:37.991Z,4.42
2019-04-27T19:07:57.408Z,4.27
2019-04-27T19:10:28.145Z,5.77
2019-04-27T19:12:58.485Z,5.27
2019-04-27T19:15:28.574Z,4.27
2019-04-27T19:17:58.196Z,5.33
2019-04-27T19:20:28.679Z,4.97
2019-04-27T19:22:59.834Z,4.63
2019-04-27T19:25:32.683Z,4.90
2019-04-27T19:28:03.824Z,4.80
2019-04-27T19:30:36.812Z,5.23
2019-04-27T19:33:05.387Z,5.90
2019-04-27T19:35:33.864Z,4.50
2019-04-27T19:38:03.380Z,5.47
2019-04-27T19:40:31.944Z,5.77
2019-04-27T19:43:03.222Z,5.92
2019-04-27T19:45:32.325Z,5.72
2019-04-27T19:48:01.888Z,6.43
2019-04-27T19:50:31.664Z,4.50
2019-04-27T19:53:01.480Z,4.65
2019-04-27T19:55:29.978Z,5.43
2019-04-27T19:57:59.487Z,5.23
2019-04-27T20:00:50.403Z,5.17
2019-04-27T20:03:20.842Z,5.27
2019-04-27T20:05:50.927Z,4.97
2019-04-27T20:08:21.160Z,4.70
2019-04-27T20:10:50.385Z,5.30
2019-04-27T20:13:21.977Z,5.00
2019-04-27T20:15:51.245Z,4.77
2019-04-27T20:18:22.906Z,5.37
2019-04-27T20:20:51.447Z,5.78
2019-04-27T20:23:22.439Z,5.93
2019-04-27T20:25:51.107Z,6.00
2019-04-27T20:28:23.128Z,5.00
2019-04-27T20:30:51.849Z,4.43
2019-04-27T20:33:21.046Z,4.90
2019-04-27T20:35:51.045Z,4.87
2019-04-27T20:38:21.420Z,5.00
2019-04-27T20:40:52.848Z,5.13
2019-04-27T20:46:02.305Z,5.83
2019-04-27T20:48:31.296Z,5.50
2019-04-27T20:51:01.343Z,5.30
2019-04-27T20:53:31.976Z,5.33
2019-04-27T20:56:00.440Z,4.97
2019-04-27T20:58:28.918Z,6.03
2019-04-27T21:01:01.553Z,5.25
2019-04-27T21:03:46.803Z,5.70
2019-04-27T21:06:16.926Z,5.97
2019-04-27T21:08:46.673Z,5.63
2019-04-27T21:11:16.131Z,5.80
2019-04-27T21:13:45.737Z,6.17
2019-04-27T21:16:14.233Z,5.57
2019-04-27T21:18:42.701Z,5.40
2019-04-27T21:21:11.473Z,6.20
2019-04-27T21:23:41.442Z,5.73
2019-04-27T21:26:10.259Z,6.07
2019-04-27T21:28:43.413Z,5.93
2019-04-27T21:31:12.813Z,5.92
2019-04-27T21:33:41.471Z,6.17
2019-04-27T21:36:12.287Z,6.67
2019-04-27T21:38:42.558Z,7.30
2019-04-27T21:41:12.179Z,7.57
2019-04-27T21:43:42.075Z,6.30
2019-04-27T21:46:11.052Z,6.17
2019-04-27T21:48:41.528Z,7.47
2019-04-27T21:51:11.908Z,6.63
2019-04-27T21:53:59.453Z,6.93
2019-04-27T21:56:31.152Z,5.37
2019-04-27T21:59:00.991Z,5.53
2019-04-27T22:01:31.954Z,5.40
2019-04-27T22:04:02.435Z,4.50
2019-04-27T22:06:32.683Z,5.10
2019-04-27T22:09:01.440Z,4.83
2019-04-27T22:11:31.780Z,4.77
2019-04-27T22:14:01.335Z,5.03
2019-04-27T22:16:31.489Z,4.90
2019-04-27T22:19:01.939Z,4.80
2019-04-27T22:21:31.742Z,4.67
2019-04-27T22:24:07.529Z,4.57
2019-04-27T22:26:35.995Z,5.30
2019-04-27T22:29:04.532Z,5.13
2019-04-27T22:34:26.372Z,4.67
2019-04-27T22:36:54.892Z,4.43
2019-04-27T22:39:24.993Z,4.00
2019-04-27T22:41:55.195Z,4.87
2019-04-27T22:44:26.574Z,4.50
2019-04-27T22:46:56.806Z,4.47
2019-04-27T22:49:25.320Z,3.70
2019-04-27T22:51:53.790Z,4.63
2019-04-27T22:54:25.052Z,4.40
2019-04-27T22:56:55.194Z,4.87
2019-04-27T22:59:25.368Z,4.97
2019-04-27T23:01:55.486Z,3.60
2019-04-27T23:04:32.412Z,4.20
2019-04-27T23:07:00.645Z,4.60
2019-04-27T23:09:29.806Z,4.07
2019-04-27T23:11:58.392Z,3.70
2019-04-27T23:14:28.520Z,5.30
2019-04-27T23:17:11.192Z,3.80
2019-04-27T23:19:42.748Z,4.47
2019-04-27T23:22:18.402Z,4.50
2019-04-27T23:24:46.914Z,4.20
2019-04-27T23:27:15.541Z,4.25
2019-04-27T23:29:44.080Z,3.87
2019-04-27T23:32:14.300Z,3.97
2019-04-27T23:34:42.827Z,3.77
2019-04-27T23:37:12.738Z,4.17
2019-04-27T23:39:41.250Z,3.95
2019-04-27T23:42:13.540Z,4.17
2019-04-27T23:44:43.025Z,3.62
2019-04-27T23:47:11.536Z,5.53
2019-04-27T23:49:40.836Z,4.77
2019-04-27T23:52:11.078Z,3.83
2019-04-27T23:54:42.755Z,4.03
2019-04-27T23:57:11.686Z,4.20
2019-04-27T23:59:42.247Z,4.53
